createdAt,value
2022-08-05T00:01:36.366Z,21.10
2022-08-05T00:04:16.868Z,21.10
2022-08-05T00:06:51.679Z,21.10
2022-08-05T00:09:19.977Z,21.10
2022-08-05T00:11:55.546Z,21.10
2022-08-05T00:14:29.062Z,21.00
2022-08-05T00:17:01.745Z,21.00
2022-08-05T00:19:32.812Z,21.00
2022-08-05T00:22:03.415Z,21.00
2022-08-05T00:24:32.283Z,21.00
2022-08-05T00:27:04.798Z,21.00
2022-08-05T00:29:38.456Z,20.90
2022-08-05T00:32:12.870Z,20.90
2022-08-05T00:35:04.245Z,20.80
2022-08-05T00:37:35.668Z,20.80
2022-08-05T00:40:26.863Z,20.80
2022-08-05T00:42:58.210Z,20.80
2022-08-05T00:45:38.293Z,20.80
2022-08-05T00:48:08.267Z,20.80
2022-08-05T00:50:37.964Z,20.80
2022-08-05T00:53:09.734Z,20.80
2022-08-05T00:55:55.416Z,20.80
2022-08-05T00:58:27.506Z,20.70
2022-08-05T01:00:55.793Z,20.70
2022-08-05T01:03:24.209Z,20.70
2022-08-05T01:05:59.478Z,20.70
2022-08-05T01:08:40.890Z,20.70
2022-08-05T01:11:22.681Z,20.70
2022-08-05T01:14:15.448Z,20.60
2022-08-05T01:16:50.734Z,20.50
2022-08-05T01:19:57.042Z,20.60
2022-08-05T01:22:37.345Z,20.40
2022-08-05T01:25:41.656Z,20.30
2022-08-05T01:28:28.505Z,20.30
2022-08-05T01:31:02.906Z,20.30
2022-08-05T01:33:36.781Z,20.30
2022-08-05T01:36:13.008Z,20.30
2022-08-05T01:38:45.610Z,20.20
2022-08-05T01:41:17.167Z,20.20
2022-08-05T01:43:52.101Z,20.10
2022-08-05T01:46:42.963Z,20.10
2022-08-05T01:49:22.988Z,20.10
2022-08-05T01:51:56.169Z,20.00
2022-08-05T01:54:30.393Z,19.90
2022-08-05T01:58:12.358Z,19.90
2022-08-05T01:59:52.513Z,19.90
2022-08-05T02:02:26.216Z,19.90
2022-08-05T02:04:59.497Z,19.80
2022-08-05T02:07:30.441Z,19.80
2022-08-05T02:09:59.207Z,19.80
2022-08-05T02:12:35.492Z,19.70
2022-08-05T02:15:12.144Z,19.70
2022-08-05T02:18:32.234Z,19.70
2022-08-05T02:20:41.068Z,19.60
2022-08-05T02:23:12.779Z,19.70
2022-08-05T02:25:49.753Z,19.60
2022-08-05T02:28:29.270Z,19.50
2022-08-05T02:31:04.387Z,19.50
2022-08-05T02:33:38.785Z,19.50
2022-08-05T02:36:13.336Z,19.50
2022-08-05T02:38:53.636Z,19.50
2022-08-05T02:41:28.725Z,19.50
2022-08-05T02:44:13.147Z,19.40
2022-08-05T02:46:58.955Z,19.30
2022-08-05T02:49:36.460Z,19.30
2022-08-05T02:52:09.058Z,19.30
2022-08-05T02:54:41.129Z,19.30
2022-08-05T02:58:11.079Z,19.20
2022-08-05T03:00:02.336Z,19.20
2022-08-05T03:02:36.442Z,19.20
2022-08-05T03:05:05.978Z,19.20
2022-08-05T03:08:01.603Z,19.20
2022-08-05T03:10:25.322Z,19.20
2022-08-05T03:12:54.402Z,19.20
2022-08-05T03:15:23.761Z,19.20
2022-08-05T03:17:55.775Z,19.20
2022-08-05T03:20:26.295Z,19.20
2022-08-05T03:22:57.243Z,19.30
2022-08-05T03:25:32.587Z,19.30
2022-08-05T03:28:03.250Z,19.30
2022-08-05T03:30:34.053Z,19.30
2022-08-05T03:33:06.090Z,19.30
2022-08-05T03:35:41.173Z,19.30
2022-08-05T03:38:11.898Z,19.20
2022-08-05T03:40:45.327Z,19.20
2022-08-05T03:44:09.979Z,19.10
2022-08-05T03:46:05.523Z,19.10
2022-08-05T03:48:37.730Z,19.20
2022-08-05T03:52:48.982Z,19.10
2022-08-05T03:56:01.744Z,19.30
2022-08-05T03:56:55.837Z,19.40
2022-08-05T03:59:47.153Z,19.40
2022-08-05T04:02:37.890Z,19.40
2022-08-05T04:05:09.640Z,19.40
2022-08-05T04:07:57.165Z,19.40
2022-08-05T04:10:28.646Z,19.30
2022-08-05T04:13:00.452Z,19.40
2022-08-05T04:15:33.216Z,19.40
2022-08-05T04:18:06.703Z,19.40
2022-08-05T04:20:36.777Z,19.30
2022-08-05T04:23:04.846Z,19.30
2022-08-05T04:25:57.853Z,19.30
2022-08-05T04:28:31.042Z,19.30
2022-08-05T04:31:00.976Z,19.30
2022-08-05T04:34:17.569Z,19.20
2022-08-05T04:36:45.259Z,19.10
2022-08-05T04:39:07.859Z,19.10
2022-08-05T04:41:37.889Z,19.10
2022-08-05T04:44:09.415Z,19.10
2022-08-05T04:46:38.256Z,19.10
2022-08-05T04:49:06.250Z,19.10
2022-08-05T04:51:44.341Z,19.10
2022-08-05T04:54:14.505Z,19.10
2022-08-05T04:56:42.440Z,19.20
2022-08-05T04:59:22.205Z,19.10
2022-08-05T05:02:08.263Z,19.10
2022-08-05T05:04:43.968Z,19.00
2022-08-05T05:07:17.611Z,19.00
2022-08-05T05:09:45.965Z,19.00
2022-08-05T05:12:13.976Z,19.10
2022-08-05T05:14:50.751Z,19.10
2022-08-05T05:17:23.797Z,19.00
2022-08-05T05:19:56.553Z,19.00
2022-08-05T05:22:26.719Z,19.00
2022-08-05T05:24:58.489Z,19.00
2022-08-05T05:27:45.715Z,19.00
2022-08-05T05:30:31.046Z,19.00
2022-08-05T05:33:03.857Z,19.00
2022-08-05T05:35:45.177Z,18.90
2022-08-05T05:38:14.778Z,18.90
2022-08-05T05:40:51.470Z,18.90
2022-08-05T05:43:22.217Z,18.90
2022-08-05T05:45:56.309Z,18.90
2022-08-05T05:48:27.608Z,18.80
2022-08-05T05:50:55.914Z,18.80
2022-08-05T05:53:25.234Z,18.80
2022-08-05T05:56:00.861Z,18.80
2022-08-05T05:58:31.450Z,18.80
2022-08-05T06:01:12.112Z,18.90
2022-08-05T06:04:00.948Z,18.90
2022-08-05T06:06:31.142Z,18.90
2022-08-05T06:09:03.904Z,18.80
2022-08-05T06:11:32.279Z,18.90
2022-08-05T06:14:00.694Z,18.90
2022-08-05T06:16:32.759Z,18.90
2022-08-05T06:19:07.401Z,18.80
2022-08-05T06:21:38.293Z,18.80
2022-08-05T06:24:12.159Z,18.80
2022-08-05T06:26:45.906Z,18.90
2022-08-05T06:29:24.963Z,18.90
2022-08-05T06:32:21.131Z,18.90
2022-08-05T06:34:56.094Z,18.90
2022-08-05T06:37:56.320Z,18.90
2022-08-05T06:40:18.139Z,18.90
2022-08-05T06:42:51.639Z,18.90
2022-08-05T06:46:03.427Z,18.90
2022-08-05T06:48:37.245Z,19.00
2022-08-05T06:50:57.290Z,18.90
2022-08-05T06:53:28.452Z,18.90
2022-08-05T06:55:59.171Z,18.90
2022-08-05T06:58:35.369Z,18.90
2022-08-05T07:01:06.168Z,18.90
2022-08-05T07:03:34.933Z,18.90
2022-08-05T07:06:05.748Z,18.90
2022-08-05T07:08:43.108Z,18.90
2022-08-05T07:11:17.842Z,18.90
2022-08-05T07:14:08.416Z,18.90
2022-08-05T07:18:07.104Z,18.90
2022-08-05T07:22:30.056Z,19.00
2022-08-05T07:25:23.338Z,19.00
2022-08-05T07:27:59.600Z,19.00
2022-08-05T07:30:32.701Z,19.10
2022-08-05T07:33:01.855Z,19.20
2022-08-05T07:35:55.829Z,19.30
2022-08-05T07:38:33.741Z,19.40
2022-08-05T07:42:09.175Z,19.50
2022-08-05T07:43:56.154Z,19.50
2022-08-05T07:46:26.518Z,19.50
2022-08-05T07:49:02.100Z,19.60
2022-08-05T07:51:40.192Z,19.60
2022-08-05T07:54:18.806Z,19.70
2022-08-05T07:57:01.451Z,19.70
2022-08-05T07:59:40.402Z,19.70
2022-08-05T08:02:15.847Z,19.70
2022-08-05T08:04:46.450Z,19.80
2022-08-05T08:07:15.233Z,19.80
2022-08-05T08:09:43.531Z,19.80
2022-08-05T08:12:35.157Z,19.90
2022-08-05T08:15:04.413Z,20.00
2022-08-05T08:17:32.908Z,20.00
2022-08-05T08:20:23.422Z,20.00
2022-08-05T08:22:53.754Z,20.10
2022-08-05T08:25:26.378Z,20.20
2022-08-05T08:28:03.939Z,20.30
2022-08-05T08:30:47.500Z,20.40
2022-08-05T08:33:17.537Z,20.40
2022-08-05T08:35:53.819Z,20.50
2022-08-05T08:38:37.775Z,20.40
2022-08-05T08:41:08.489Z,20.40
2022-08-05T08:45:23.124Z,20.40
2022-08-05T08:46:30.635Z,20.30
2022-08-05T08:50:03.952Z,20.30
2022-08-05T08:52:03.526Z,20.30
2022-08-05T08:54:36.433Z,20.40
2022-08-05T08:57:11.497Z,20.40
2022-08-05T08:59:41.872Z,20.40
2022-08-05T09:02:19.150Z,20.50
2022-08-05T09:05:16.899Z,20.40
2022-08-05T09:07:40.049Z,20.40
2022-08-05T09:10:27.667Z,20.40
2022-08-05T09:13:04.523Z,20.40
2022-08-05T09:15:37.096Z,20.30
2022-08-05T09:18:09.377Z,20.30
2022-08-05T09:20:38.319Z,20.20
2022-08-05T09:23:19.839Z,20.20
2022-08-05T09:26:02.927Z,20.10
2022-08-05T09:28:34.538Z,20.00
2022-08-05T09:31:22.458Z,20.00
2022-08-05T09:33:58.407Z,19.80
2022-08-05T09:36:54.449Z,19.80
2022-08-05T09:39:27.836Z,19.70
2022-08-05T09:42:23.608Z,19.60
2022-08-05T09:44:57.368Z,19.70
2022-08-05T09:47:36.331Z,19.70
2022-08-05T09:50:37.699Z,19.70
2022-08-05T09:53:08.732Z,19.70
2022-08-05T09:55:57.131Z,19.70
2022-08-05T09:58:26.610Z,19.50
2022-08-05T10:01:00.493Z,19.50
2022-08-05T10:03:56.934Z,19.60
2022-08-05T10:06:20.831Z,19.60
2022-08-05T10:08:50.325Z,19.60
2022-08-05T10:11:22.110Z,19.60
2022-08-05T10:13:54.626Z,19.50
2022-08-05T10:16:31.123Z,19.50
2022-08-05T10:19:01.143Z,19.50
2022-08-05T10:21:40.428Z,19.50
2022-08-05T10:24:13.376Z,19.50
2022-08-05T10:26:51.517Z,19.50
2022-08-05T10:29:23.576Z,19.60
2022-08-05T10:33:02.201Z,19.60
2022-08-05T10:35:00.839Z,19.70
2022-08-05T10:37:40.322Z,19.60
2022-08-05T10:40:27.745Z,19.70
2022-08-05T10:43:00.723Z,19.80
2022-08-05T10:45:40.111Z,19.90
2022-08-05T10:48:52.713Z,19.90
2022-08-05T10:51:29.313Z,19.90
2022-08-05T10:54:01.828Z,19.90
2022-08-05T10:56:46.996Z,20.00
2022-08-05T11:00:04.467Z,20.10
2022-08-05T11:02:14.583Z,20.00
2022-08-05T11:05:00.348Z,20.10
2022-08-05T11:07:32.893Z,20.20
2022-08-05T11:10:27.186Z,20.20
2022-08-05T11:12:56.221Z,20.10
2022-08-05T11:16:00.192Z,20.10
2022-08-05T11:18:26.975Z,20.20
2022-08-05T11:20:55.450Z,20.20
2022-08-05T11:24:04.417Z,20.20
2022-08-05T11:26:33.973Z,20.20
2022-08-05T11:29:13.536Z,20.10
2022-08-05T11:31:57.004Z,20.10
2022-08-05T11:34:40.075Z,20.10
2022-08-05T11:38:29.692Z,20.10
2022-08-05T11:41:03.465Z,20.00
2022-08-05T11:44:05.903Z,20.00
2022-08-05T11:46:35.041Z,19.90
2022-08-05T11:49:05.209Z,19.90
2022-08-05T11:51:44.207Z,19.90
2022-08-05T11:54:24.447Z,19.90
2022-08-05T11:57:08.738Z,19.90
2022-08-05T11:59:53.246Z,19.80
2022-08-05T12:02:31.779Z,19.70
2022-08-05T12:05:08.105Z,19.50
2022-08-05T12:08:08.964Z,19.50
2022-08-05T12:10:45.883Z,19.60
2022-08-05T12:13:27.822Z,19.60
2022-08-05T12:16:15.666Z,19.60
2022-08-05T12:18:49.086Z,19.50
2022-08-05T12:21:24.139Z,19.40
2022-08-05T12:24:00.006Z,19.40
2022-08-05T12:26:33.282Z,19.30
2022-08-05T12:29:01.322Z,19.30
2022-08-05T12:31:46.047Z,19.20
2022-08-05T12:34:21.278Z,19.10
2022-08-05T12:36:51.682Z,19.00
2022-08-05T12:39:20.162Z,18.90
2022-08-05T12:41:48.729Z,18.90
2022-08-05T12:44:28.690Z,18.80
2022-08-05T12:47:03.964Z,18.80
2022-08-05T12:50:02.493Z,18.70
2022-08-05T12:52:39.760Z,18.70
2022-08-05T12:55:23.573Z,18.80
2022-08-05T12:58:38.804Z,18.80
2022-08-05T13:02:00.419Z,18.80
2022-08-05T13:03:38.884Z,18.80
2022-08-05T13:06:14.118Z,18.70
2022-08-05T13:08:50.900Z,18.60
2022-08-05T13:11:25.467Z,18.60
2022-08-05T13:14:20.453Z,18.60
2022-08-05T13:17:08.359Z,18.50
2022-08-05T13:19:51.106Z,18.60
2022-08-05T13:22:29.324Z,18.70
2022-08-05T13:25:00.798Z,18.70
2022-08-05T13:27:38.745Z,18.70
2022-08-05T13:30:35.105Z,18.70
2022-08-05T13:32:57.352Z,18.70
2022-08-05T13:35:47.531Z,18.60
2022-08-05T13:38:30.312Z,18.70
2022-08-05T13:41:02.169Z,18.70
2022-08-05T13:43:43.534Z,18.80
2022-08-05T13:46:16.262Z,18.80
2022-08-05T13:48:57.664Z,19.00
2022-08-05T13:51:40.244Z,19.00
2022-08-05T13:54:12.676Z,19.00
2022-08-05T13:56:44.959Z,19.00
2022-08-05T13:59:21.049Z,19.00
2022-08-05T14:01:56.744Z,19.10
2022-08-05T14:04:41.891Z,19.20
2022-08-05T14:07:26.256Z,19.20
2022-08-05T14:09:59.913Z,19.40
2022-08-05T14:12:32.116Z,19.50
2022-08-05T14:15:00.967Z,19.60
2022-08-05T14:17:34.074Z,19.60
2022-08-05T14:20:04.506Z,19.70
2022-08-05T14:22:36.655Z,19.70
2022-08-05T14:25:06.379Z,19.80
2022-08-05T14:27:48.457Z,19.70
2022-08-05T14:30:20.197Z,19.80
2022-08-05T14:32:49.583Z,19.90
2022-08-05T14:35:20.619Z,20.00
2022-08-05T14:37:55.410Z,20.00
2022-08-05T14:40:24.426Z,20.10
2022-08-05T14:42:52.735Z,20.10
2022-08-05T14:45:20.755Z,20.10
2022-08-05T14:48:05.536Z,20.20
2022-08-05T14:50:40.609Z,20.30
2022-08-05T14:53:10.302Z,20.40
2022-08-05T14:55:39.524Z,20.40
2022-08-05T14:58:11.793Z,20.40
2022-08-05T15:00:59.479Z,20.20
2022-08-05T15:03:33.236Z,20.20
2022-08-05T15:06:06.795Z,20.30
2022-08-05T15:09:01.059Z,20.40
2022-08-05T15:11:52.547Z,20.40
2022-08-05T15:14:33.995Z,20.40
2022-08-05T15:17:03.829Z,20.30
2022-08-05T15:19:32.454Z,20.40
2022-08-05T15:22:01.751Z,20.40
2022-08-05T15:24:31.392Z,20.40
2022-08-05T15:26:59.317Z,20.40
2022-08-05T15:29:29.914Z,20.40
2022-08-05T15:32:02.982Z,20.30
2022-08-05T15:34:33.585Z,20.20
2022-08-05T15:37:06.386Z,20.20
2022-08-05T15:40:58.794Z,20.00
2022-08-05T15:42:55.103Z,20.00
2022-08-05T15:45:13.207Z,20.00
2022-08-05T15:47:41.753Z,20.00
2022-08-05T15:50:15.368Z,20.00
2022-08-05T15:52:52.815Z,20.00
2022-08-05T15:55:24.941Z,20.00
2022-08-05T15:58:16.708Z,20.10
2022-08-05T16:00:57.077Z,20.10
2022-08-05T16:03:32.845Z,20.10
2022-08-05T16:06:02.369Z,20.10
2022-08-05T16:08:30.940Z,20.10
2022-08-05T16:11:00.587Z,20.10
2022-08-05T16:13:34.088Z,20.20
2022-08-05T16:16:03.298Z,20.20
2022-08-05T16:18:32.795Z,20.20
2022-08-05T16:21:03.929Z,20.20
2022-08-05T16:23:53.160Z,20.20
2022-08-05T16:26:26.570Z,20.20
2022-08-05T16:28:55.345Z,20.20
2022-08-05T16:31:23.439Z,20.20
2022-08-05T16:33:52.090Z,20.20
2022-08-05T16:36:23.829Z,20.20
2022-08-05T16:38:54.290Z,20.20
2022-08-05T16:42:14.042Z,20.20
2022-08-05T16:44:14.324Z,20.20
2022-08-05T16:46:55.652Z,20.20
2022-08-05T16:49:26.361Z,20.30
2022-08-05T16:51:54.959Z,20.30
2022-08-05T16:54:30.348Z,20.40
2022-08-05T16:57:02.354Z,20.30
2022-08-05T16:59:30.632Z,20.30
2022-08-05T17:01:59.506Z,20.20
2022-08-05T17:04:29.034Z,20.10
2022-08-05T17:07:01.122Z,20.10
2022-08-05T17:09:30.583Z,20.00
2022-08-05T17:12:08.968Z,19.90
2022-08-05T17:14:39.802Z,19.70
2022-08-05T17:17:15.243Z,19.60
2022-08-05T17:19:46.107Z,19.50
2022-08-05T17:22:24.490Z,19.50
2022-08-05T17:24:57.981Z,19.60
2022-08-05T17:27:33.816Z,19.60
2022-08-05T17:30:03.417Z,19.20
2022-08-05T17:32:33.856Z,19.00
2022-08-05T17:35:03.048Z,18.70
2022-08-05T17:37:41.844Z,18.60
2022-08-05T17:40:15.279Z,18.60
2022-08-05T17:42:52.066Z,18.60
2022-08-05T17:45:24.900Z,18.70
2022-08-05T17:47:55.887Z,18.80
2022-08-05T17:50:28.694Z,18.70
2022-08-05T17:52:59.820Z,18.60
2022-08-05T17:55:37.588Z,18.60
2022-08-05T17:58:13.061Z,18.60
2022-08-05T18:00:45.315Z,18.50
2022-08-05T18:03:33.453Z,18.40
2022-08-05T18:06:11.223Z,18.30
2022-08-05T18:08:40.639Z,18.30
2022-08-05T18:11:24.645Z,18.20
2022-08-05T18:14:06.793Z,18.10
2022-08-05T18:16:50.981Z,18.00
2022-08-05T18:19:22.969Z,18.10
2022-08-05T18:22:08.541Z,18.00
2022-08-05T18:24:39.928Z,18.00
2022-08-05T18:27:12.369Z,18.00
2022-08-05T18:29:42.153Z,18.00
2022-08-05T18:32:13.108Z,18.00
2022-08-05T18:34:42.805Z,17.90
2022-08-05T18:37:12.548Z,17.80
2022-08-05T18:41:52.728Z,17.70
2022-08-05T18:42:32.780Z,18.10
2022-08-05T18:47:33.981Z,17.50
2022-08-05T18:50:19.463Z,17.40
2022-08-05T18:52:50.734Z,17.40
2022-08-05T18:55:20.341Z,17.40
2022-08-05T18:57:53.388Z,17.40
2022-08-05T19:00:29.220Z,17.30
2022-08-05T19:03:03.191Z,17.20
2022-08-05T19:06:13.217Z,17.20
2022-08-05T19:08:22.406Z,17.10
2022-08-05T19:11:04.722Z,17.10
2022-08-05T19:13:35.849Z,17.00
2022-08-05T19:16:25.466Z,17.00
2022-08-05T19:18:56.572Z,17.00
2022-08-05T19:21:26.144Z,17.00
2022-08-05T19:24:05.238Z,17.00
2022-08-05T19:26:54.195Z,17.00
2022-08-05T19:29:23.756Z,17.00
2022-08-05T19:31:57.341Z,17.00
2022-08-05T19:34:25.872Z,17.10
2022-08-05T19:36:53.990Z,16.80
2022-08-05T19:39:22.015Z,16.80
2022-08-05T19:42:05.956Z,16.70
2022-08-05T19:44:44.618Z,16.70
2022-08-05T19:47:15.308Z,16.60
2022-08-05T19:49:44.639Z,16.60
2022-08-05T19:52:30.896Z,16.60
2022-08-05T19:55:06.896Z,16.50
2022-08-05T19:58:19.425Z,16.50
2022-08-05T20:00:37.818Z,16.60
2022-08-05T20:03:09.071Z,16.60
2022-08-05T20:05:43.417Z,16.60
2022-08-05T20:08:18.588Z,16.50
2022-08-05T20:10:49.343Z,16.50
2022-08-05T20:13:18.404Z,16.60
2022-08-05T20:15:58.405Z,16.60
2022-08-05T20:18:33.606Z,16.60
2022-08-05T20:21:05.046Z,16.50
2022-08-05T20:23:39.226Z,16.50
2022-08-05T20:26:18.813Z,16.60
2022-08-05T20:28:48.564Z,16.50
2022-08-05T20:31:17.031Z,16.30
2022-08-05T20:33:46.459Z,16.20
2022-08-05T20:36:16.466Z,16.10
2022-08-05T20:38:53.818Z,16.10
2022-08-05T20:41:27.276Z,16.10
2022-08-05T20:44:16.951Z,16.20
2022-08-05T20:46:46.231Z,16.20
2022-08-05T20:49:24.180Z,16.20
2022-08-05T20:51:53.749Z,16.20
2022-08-05T20:54:22.065Z,16.10
2022-08-05T20:56:50.030Z,16.10
2022-08-05T20:59:19.161Z,16.00
2022-08-05T21:01:57.156Z,16.00
2022-08-05T21:04:26.965Z,16.00
2022-08-05T21:06:55.830Z,16.00
2022-08-05T21:09:24.105Z,16.00
2022-08-05T21:12:09.094Z,15.90
2022-08-05T21:14:39.644Z,15.90
2022-08-05T21:17:19.988Z,15.90
2022-08-05T21:19:52.127Z,15.90
2022-08-05T21:22:21.918Z,15.90
2022-08-05T21:24:52.572Z,15.90
2022-08-05T21:27:25.517Z,15.90
2022-08-05T21:29:56.117Z,15.90
2022-08-05T21:32:24.671Z,15.90
2022-08-05T21:35:17.660Z,15.90
2022-08-05T21:37:53.147Z,15.90
2022-08-05T21:40:21.981Z,15.80
2022-08-05T21:42:51.861Z,15.90
2022-08-05T21:45:25.206Z,15.90
2022-08-05T21:48:09.269Z,15.90
2022-08-05T21:50:38.532Z,15.80
2022-08-05T21:53:16.121Z,15.80
2022-08-05T21:56:06.162Z,15.80
2022-08-05T21:58:32.755Z,15.80
2022-08-05T22:01:01.462Z,15.80
2022-08-05T22:03:52.464Z,15.70
2022-08-05T22:06:23.069Z,15.80
2022-08-05T22:09:13.547Z,15.90
2022-08-05T22:11:46.728Z,15.70
2022-08-05T22:14:33.579Z,15.80
2022-08-05T22:17:06.562Z,15.90
2022-08-05T22:20:03.164Z,15.90
2022-08-05T22:22:28.083Z,16.00
2022-08-05T22:25:18.123Z,16.00
2022-08-05T22:28:08.250Z,16.00
2022-08-05T22:30:55.643Z,16.00
2022-08-05T22:33:56.542Z,16.00
2022-08-05T22:36:15.157Z,16.00
2022-08-05T22:38:48.456Z,16.00
2022-08-05T22:42:05.727Z,16.00
2022-08-05T22:44:06.246Z,15.90
2022-08-05T22:46:34.164Z,16.00
2022-08-05T22:49:12.494Z,16.00
2022-08-05T22:52:04.874Z,15.90
2022-08-05T22:54:37.438Z,15.80
2022-08-05T22:57:07.616Z,15.90
2022-08-05T22:59:45.247Z,15.90
2022-08-05T23:02:17.340Z,15.80
2022-08-05T23:04:51.577Z,15.80
2022-08-05T23:07:22.031Z,15.90
2022-08-05T23:09:57.165Z,15.80
2022-08-05T23:12:28.677Z,15.80
2022-08-05T23:14:57.167Z,15.70
2022-08-05T23:17:34.348Z,15.70
2022-08-05T23:20:10.448Z,15.70
2022-08-05T23:22:47.555Z,15.70
2022-08-05T23:25:52.618Z,15.70
2022-08-05T23:28:07.774Z,15.60
2022-08-05T23:30:39.992Z,15.60
2022-08-05T23:33:22.047Z,15.60
2022-08-05T23:35:55.097Z,15.60
2022-08-05T23:38:26.729Z,15.60
2022-08-05T23:40:56.232Z,15.60
2022-08-05T23:43:49.777Z,15.60
2022-08-05T23:46:21.392Z,15.60
2022-08-05T23:49:00.608Z,15.60
2022-08-05T23:51:52.891Z,15.60
2022-08-05T23:54:25.673Z,15.60
2022-08-05T23:56:58.286Z,15.60
